Massena, New York
Current Conditions -  °F | °C
As of 8:53 AM on Sunday 23 Nov 2014 (Local Time) from KMSS Reporting Station
Haze Haze  
Wind Chill: 42°   Ceiling: 300
Heat Index: 42°   Visibility: 0.75mi
Dew Point: 42°   Wind: 3mph
Humidity: 100%   Direction: 200°SSW
Pressure: 30.05"   Gusts: NA
Location:  44.93°N, 74.89°W
Report Text: KMSS 231353Z AUTO 20003KT 3/4SM BR OVC003 06/06 A3005 RMK AO2 SLP179 T00560056 $
Loading
Personal Weather Stations






























Interactive Weather Map New forecast layout! Learn more

10-Day Weather Forecast

Advertisements
Track Severe Weather on mobile